createdAt,value
2024-02-23T00:02:24.956Z,8.95
2024-02-23T00:07:28.690Z,8.94
2024-02-23T00:12:30.512Z,9.01
2024-02-23T00:17:32.705Z,9.05
2024-02-23T00:22:35.404Z,9.07
2024-02-23T00:27:37.828Z,9.08
2024-02-23T00:32:39.933Z,9.06
2024-02-23T00:37:41.977Z,9.05
2024-02-23T00:42:43.789Z,9.03
2024-02-23T00:47:48.200Z,9.02
2024-02-23T00:52:50.202Z,9.02
2024-02-23T00:57:52.274Z,9.04
2024-02-23T01:02:54.309Z,9.05
2024-02-23T01:07:56.346Z,9.05
2024-02-23T01:12:58.842Z,9.06
2024-02-23T01:18:00.858Z,9.05
2024-02-23T01:23:03.136Z,9.04
2024-02-23T01:28:05.510Z,9.04
2024-02-23T01:33:07.576Z,9.04
2024-02-23T01:38:09.511Z,9.03
2024-02-23T01:43:11.534Z,9.02
2024-02-23T01:48:14.037Z,8.98
2024-02-23T01:53:16.971Z,8.95
2024-02-23T01:58:19.316Z,8.93
2024-02-23T02:03:21.291Z,8.91
2024-02-23T02:08:23.503Z,8.90
2024-02-23T02:13:25.395Z,8.90
2024-02-23T02:18:27.310Z,8.91
2024-02-23T02:23:29.248Z,8.92
2024-02-23T02:28:31.480Z,8.91
2024-02-23T02:33:33.463Z,8.91
2024-02-23T02:38:35.655Z,8.88
2024-02-23T02:43:37.625Z,8.82
2024-02-23T02:48:39.738Z,8.76
2024-02-23T02:53:41.780Z,8.70
2024-02-23T02:58:43.691Z,8.65
2024-02-23T03:03:45.581Z,8.58
2024-02-23T03:08:47.479Z,8.48
2024-02-23T03:13:49.293Z,8.40
2024-02-23T03:18:51.558Z,8.32
2024-02-23T03:23:53.397Z,8.25
2024-02-23T03:28:55.339Z,8.15
2024-02-23T03:33:57.674Z,8.08
2024-02-23T03:38:59.571Z,8.02
2024-02-23T03:44:01.608Z,7.94
2024-02-23T03:49:03.413Z,7.87
2024-02-23T03:54:05.432Z,7.82
2024-02-23T03:59:07.412Z,7.77
2024-02-23T04:04:09.483Z,7.73
2024-02-23T04:09:11.809Z,7.72
2024-02-23T04:14:13.669Z,7.72
2024-02-23T04:19:15.757Z,7.69
2024-02-23T04:24:17.589Z,7.65
2024-02-23T04:29:19.502Z,7.62
2024-02-23T04:34:21.487Z,7.60
2024-02-23T04:39:23.810Z,7.58
2024-02-23T04:44:25.770Z,7.57
2024-02-23T04:49:27.733Z,7.57
2024-02-23T04:54:29.793Z,7.55
2024-02-23T04:59:33.629Z,7.54
2024-02-23T05:04:35.593Z,7.53
2024-02-23T05:09:37.497Z,7.53
2024-02-23T05:14:39.540Z,7.56
2024-02-23T05:19:41.695Z,7.57
2024-02-23T05:24:45.562Z,7.57
2024-02-23T05:29:47.524Z,7.58
2024-02-23T05:34:52.838Z,7.60
2024-02-23T05:39:55.184Z,7.58
2024-02-23T05:44:57.500Z,7.56
2024-02-23T05:49:59.476Z,7.55
2024-02-23T05:55:01.802Z,7.52
2024-02-23T06:00:04.553Z,7.48
2024-02-23T06:05:14.196Z,7.47
2024-02-23T06:10:16.313Z,7.43
2024-02-23T06:15:18.220Z,7.41
2024-02-23T06:20:21.344Z,7.44
2024-02-23T06:25:23.387Z,7.45
2024-02-23T06:30:25.120Z,7.49
2024-02-23T06:35:27.164Z,7.61
2024-02-23T06:40:37.660Z,7.72
2024-02-23T06:45:47.910Z,7.78
2024-02-23T06:50:50.308Z,7.82
2024-02-23T06:55:52.332Z,7.85
2024-02-23T07:00:54.484Z,7.86
2024-02-23T07:05:56.889Z,7.84
2024-02-23T07:10:59.144Z,7.82
2024-02-23T07:16:02.003Z,7.84
2024-02-23T07:21:04.008Z,7.87
2024-02-23T07:26:05.865Z,7.89
2024-02-23T07:31:07.749Z,7.92
2024-02-23T07:36:15.674Z,7.95
2024-02-23T07:41:20.651Z,7.98
2024-02-23T07:46:26.333Z,8.00
2024-02-23T07:51:29.832Z,8.06
2024-02-23T07:56:31.890Z,8.13
2024-02-23T08:01:33.810Z,8.20
2024-02-23T08:06:35.609Z,8.27
2024-02-23T08:11:37.812Z,8.33
2024-02-23T08:16:39.984Z,8.39
2024-02-23T08:21:42.369Z,8.45
2024-02-23T08:26:44.239Z,8.48
2024-02-23T08:31:46.347Z,8.50
2024-02-23T08:36:48.058Z,8.51
2024-02-23T08:41:50.214Z,8.53
2024-02-23T08:46:52.373Z,8.56
2024-02-23T08:51:54.390Z,8.61
2024-02-23T08:56:56.376Z,8.68
2024-02-23T09:01:58.263Z,8.77
2024-02-23T09:07:00.230Z,8.88
2024-02-23T09:12:02.273Z,9.04
2024-02-23T09:17:04.652Z,9.26
2024-02-23T09:22:06.569Z,9.56
2024-02-23T09:27:08.827Z,9.88
2024-02-23T09:32:11.083Z,10.18
2024-02-23T09:37:13.006Z,10.46
2024-02-23T09:42:15.910Z,10.64
2024-02-23T09:47:18.600Z,10.66
2024-02-23T09:52:22.583Z,10.61
2024-02-23T09:57:25.316Z,10.55
2024-02-23T10:02:27.158Z,10.51
2024-02-23T10:07:29.109Z,10.48
2024-02-23T10:12:31.079Z,10.46
2024-02-23T10:17:36.356Z,10.42
2024-02-23T10:22:39.606Z,10.39
2024-02-23T10:27:41.987Z,10.35
2024-02-23T10:32:44.176Z,10.33
2024-02-23T10:37:51.256Z,10.34
2024-02-23T10:42:58.083Z,10.31
2024-02-23T10:48:00.863Z,10.21
2024-02-23T10:53:10.124Z,10.09
2024-02-23T10:58:14.366Z,10.05
2024-02-23T11:03:17.124Z,10.04
2024-02-23T11:08:20.935Z,10.03
2024-02-23T11:13:34.880Z,10.05
2024-02-23T11:18:38.004Z,10.09
2024-02-23T11:23:44.098Z,10.07
2024-02-23T11:28:54.986Z,10.05
2024-02-23T11:33:58.190Z,10.09
2024-02-23T11:39:01.568Z,10.20
2024-02-23T11:44:04.774Z,10.32
2024-02-23T11:49:07.189Z,10.42
2024-02-23T11:54:10.015Z,10.56
2024-02-23T11:59:12.017Z,10.63
2024-02-23T12:04:13.845Z,10.64
2024-02-23T12:09:16.822Z,10.59
2024-02-23T12:14:19.161Z,10.61
2024-02-23T12:19:21.449Z,10.66
2024-02-23T12:24:24.524Z,10.71
2024-02-23T12:29:26.827Z,10.74
2024-02-23T12:34:30.110Z,10.76
2024-02-23T12:39:33.301Z,10.83
2024-02-23T12:44:36.275Z,10.85
2024-02-23T12:49:39.717Z,10.81
2024-02-23T12:54:43.188Z,10.83
2024-02-23T12:59:45.254Z,10.84
2024-02-23T13:04:51.824Z,10.85
2024-02-23T13:09:53.789Z,10.77
2024-02-23T13:14:55.581Z,10.70
2024-02-23T13:20:05.720Z,10.67
2024-02-23T13:25:13.233Z,10.65
2024-02-23T13:30:16.687Z,10.62
2024-02-23T13:35:18.791Z,10.55
2024-02-23T13:40:20.933Z,10.43
2024-02-23T13:45:24.703Z,10.26
2024-02-23T13:50:27.476Z,10.11
2024-02-23T13:55:29.961Z,9.96
2024-02-23T14:00:31.981Z,9.85
2024-02-23T14:05:34.048Z,9.81
2024-02-23T14:10:36.137Z,9.82
2024-02-23T14:15:38.004Z,9.83
2024-02-23T14:20:41.834Z,9.85
2024-02-23T14:25:43.705Z,9.81
2024-02-23T14:30:45.633Z,9.72
2024-02-23T14:35:48.053Z,9.70
2024-02-23T14:40:50.422Z,9.68
2024-02-23T14:45:53.879Z,9.62
2024-02-23T14:50:56.411Z,9.56
2024-02-23T14:55:58.461Z,9.59
2024-02-23T15:01:00.671Z,9.57
2024-02-23T15:06:03.200Z,9.41
2024-02-23T15:11:06.566Z,9.31
2024-02-23T15:16:08.630Z,9.32
2024-02-23T15:21:10.594Z,9.37
2024-02-23T15:26:12.689Z,9.35
2024-02-23T15:31:15.016Z,9.34
2024-02-23T15:36:17.128Z,9.37
2024-02-23T15:41:19.002Z,9.33
2024-02-23T15:46:20.866Z,9.28
2024-02-23T15:51:33.794Z,9.22
2024-02-23T15:56:44.992Z,9.08
2024-02-23T16:01:47.101Z,9.03
2024-02-23T16:06:48.918Z,8.98
2024-02-23T16:11:51.297Z,8.89
2024-02-23T16:16:54.695Z,8.82
2024-02-23T16:21:56.939Z,8.80
2024-02-23T16:26:58.982Z,8.77
2024-02-23T16:32:01.146Z,8.77
2024-02-23T16:37:03.478Z,8.81
2024-02-23T16:42:06.751Z,8.87
2024-02-23T16:47:08.610Z,8.89
2024-02-23T16:52:10.587Z,8.90
2024-02-23T16:57:12.541Z,8.88
2024-02-23T17:02:14.483Z,8.87
2024-02-23T17:07:16.464Z,8.79
2024-02-23T17:12:21.879Z,8.73
2024-02-23T17:17:24.008Z,8.70
2024-02-23T17:22:27.940Z,8.69
2024-02-23T17:27:29.902Z,8.71
2024-02-23T17:32:31.946Z,8.73
2024-02-23T17:37:34.105Z,8.69
2024-02-23T17:42:36.064Z,8.68
2024-02-23T17:47:38.702Z,8.64
2024-02-23T17:52:40.563Z,8.57
2024-02-23T17:57:42.540Z,8.50
2024-02-23T18:02:44.698Z,8.42
2024-02-23T18:07:46.755Z,8.38
2024-02-23T18:12:48.733Z,8.35
2024-02-23T18:17:52.632Z,8.31
2024-02-23T18:22:54.789Z,8.29
2024-02-23T18:27:56.817Z,8.29
2024-02-23T18:32:58.943Z,8.29
2024-02-23T18:38:01.307Z,8.29
2024-02-23T18:43:05.037Z,8.26
2024-02-23T18:48:07.872Z,8.24
2024-02-23T18:53:09.875Z,8.23
2024-02-23T18:58:13.419Z,8.21
2024-02-23T19:03:15.277Z,8.21
2024-02-23T19:08:17.266Z,8.18
2024-02-23T19:13:19.211Z,8.18
2024-02-23T19:18:21.849Z,8.18
2024-02-23T19:23:23.957Z,8.17
2024-02-23T19:28:25.901Z,8.16
2024-02-23T19:33:27.734Z,8.14
2024-02-23T19:38:29.647Z,8.13
2024-02-23T19:43:31.553Z,8.14
2024-02-23T19:48:33.492Z,8.16
2024-02-23T19:53:35.775Z,8.15
2024-02-23T19:58:37.801Z,8.14
2024-02-23T20:03:39.734Z,8.13
2024-02-23T20:08:41.854Z,8.12
2024-02-23T20:13:44.038Z,8.09
2024-02-23T20:18:46.184Z,8.03
2024-02-23T20:23:48.262Z,7.99
2024-02-23T20:28:50.191Z,7.93
2024-02-23T20:33:52.181Z,7.89
2024-02-23T20:38:54.372Z,7.86
2024-02-23T20:43:59.089Z,7.83
2024-02-23T20:49:02.657Z,7.83
2024-02-23T20:54:05.390Z,7.83
2024-02-23T20:59:07.317Z,7.85
2024-02-23T21:04:09.345Z,7.87
2024-02-23T21:09:13.015Z,7.88
2024-02-23T21:14:16.166Z,7.91
2024-02-23T21:19:18.050Z,7.93
2024-02-23T21:24:19.903Z,7.97
2024-02-23T21:29:22.074Z,8.01
2024-02-23T21:34:24.164Z,8.04
2024-02-23T21:39:26.300Z,8.07
2024-02-23T21:44:28.288Z,8.07
2024-02-23T21:49:30.209Z,8.07
2024-02-23T21:54:32.959Z,8.06
2024-02-23T21:59:34.978Z,8.05
2024-02-23T22:04:39.731Z,8.03
2024-02-23T22:09:46.083Z,8.01
2024-02-23T22:14:48.119Z,7.97
2024-02-23T22:19:50.156Z,7.94
2024-02-23T22:24:52.252Z,7.92
2024-02-23T22:29:54.276Z,7.93
2024-02-23T22:34:56.365Z,7.93
2024-02-23T22:39:58.423Z,7.95
2024-02-23T22:45:00.484Z,8.01
2024-02-23T22:50:03.463Z,8.06
2024-02-23T22:55:06.228Z,8.11
2024-02-23T23:00:10.791Z,8.14
2024-02-23T23:05:13.013Z,8.16
2024-02-23T23:10:14.956Z,8.21
2024-02-23T23:15:16.948Z,8.24
2024-02-23T23:20:20.674Z,8.28
2024-02-23T23:25:22.708Z,8.35
2024-02-23T23:30:24.644Z,8.40
2024-02-23T23:35:26.742Z,8.44
2024-02-23T23:40:28.631Z,8.48
2024-02-23T23:45:30.796Z,8.50
2024-02-23T23:50:32.862Z,8.51
2024-02-23T23:55:35.101Z,8.55
